Time;durP1;ratioP1;P1;durP2;ratioP2;P2;SDS_P1;SDS_P2;PMS_P1;PMS_P2;Temp;Humidity;BMP_temperature;BMP_pressure;BME280_temperature;BME280_humidity;BME280_pressure;Samples;Min_cycle;Max_cycle;Signal;HPM_P1;HPM_P2
2021/01/21 00:02:26;;;;;;;18.35;3.03;;;21.60;22.70;;;;;;4994059;28;20022;-71
2021/01/21 00:04:52;;;;;;;18.05;2.70;;;21.60;23.70;;;;;;4996203;28;20072;-71
2021/01/21 00:07:19;;;;;;;35.90;2.78;;;21.50;23.20;;;;;;4997331;28;20026;-71
2021/01/21 00:09:45;;;;;;;30.73;3.00;;;21.40;22.20;;;;;;4991404;28;20034;-73
2021/01/21 00:12:12;;;;;;;21.52;2.42;;;21.50;23.20;;;;;;4987008;28;20118;-73
2021/01/21 00:14:38;;;;;;;17.65;2.28;;;21.40;23.20;;;;;;4991960;28;20429;-72
2021/01/21 00:17:04;;;;;;;20.85;2.88;;;21.40;23.20;;;;;;4990006;28;20045;-73
2021/01/21 00:19:31;;;;;;;15.93;2.40;;;21.50;23.70;;;;;;4993299;28;20096;-72
2021/01/21 00:21:57;;;;;;;17.33;2.25;;;21.40;23.50;;;;;;4989018;28;20419;-72
2021/01/21 00:24:24;;;;;;;14.77;2.55;;;21.40;23.80;;;;;;4983582;28;20030;-72
2021/01/21 00:26:50;;;;;;;25.08;2.63;;;21.30;23.50;;;;;;4990640;28;20360;-72
2021/01/21 00:29:16;;;;;;;22.98;3.40;;;21.20;24.00;;;;;;4985918;28;20037;-72
2021/01/21 00:31:43;;;;;;;26.40;3.33;;;21.20;24.10;;;;;;4985300;28;20026;-71
2021/01/21 00:34:10;;;;;;;24.63;3.20;;;21.30;24.60;;;;;;4987163;28;20085;-70
2021/01/21 00:36:37;;;;;;;18.88;2.30;;;21.10;23.40;;;;;;4981741;28;20034;-73
2021/01/21 00:39:06;;;;;;;11.85;1.98;;;21.10;23.50;;;;;;4985165;28;20065;-71
2021/01/21 00:41:32;;;;;;;22.58;3.10;;;21.10;25.10;;;;;;4987779;28;20364;-71
2021/01/21 00:44:17;;;;;;;19.90;4.15;;;21.10;25.40;;;;;;4993190;28;20098;-71
2021/01/21 00:46:43;;;;;;;22.67;2.67;;;21.20;25.60;;;;;;4993383;28;20034;-71
2021/01/21 00:49:10;;;;;;;15.32;2.50;;;21.00;25.50;;;;;;4996161;28;20026;-73
2021/01/21 00:51:36;;;;;;;17.70;2.50;;;20.90;25.70;;;;;;4994952;28;20050;-72
2021/01/21 00:54:03;;;;;;;12.85;2.00;;;20.70;25.90;;;;;;4991378;28;20117;-72
2021/01/21 00:56:29;;;;;;;14.35;2.80;;;20.50;26.00;;;;;;4993037;28;20041;-72
2021/01/21 00:58:55;;;;;;;20.58;5.70;;;20.40;26.00;;;;;;4994950;28;20055;-71
2021/01/21 01:01:22;;;;;;;30.88;8.45;;;20.20;26.00;;;;;;4992343;28;20069;-71
2021/01/21 01:03:48;;;;;;;30.98;6.75;;;20.00;26.20;;;;;;4989763;28;20027;-72
2021/01/21 01:06:15;;;;;;;30.20;9.57;;;19.70;26.30;;;;;;4990247;28;20033;-72
2021/01/21 01:08:41;;;;;;;33.25;11.07;;;19.40;26.60;;;;;;4988896;28;20038;-72
2021/01/21 01:11:07;;;;;;;25.55;6.75;;;19.20;26.90;;;;;;4989351;28;20097;-72
2021/01/21 01:13:34;;;;;;;23.77;8.10;;;19.10;26.80;;;;;;4994423;28;20061;-72
2021/01/21 01:16:00;;;;;;;16.40;3.72;;;18.80;27.10;;;;;;4993767;28;20360;-71
2021/01/21 01:18:26;;;;;;;21.30;2.75;;;18.60;27.00;;;;;;4994225;28;20018;-71
2021/01/21 01:20:56;;;;;;;18.45;1.95;;;18.40;27.50;;;;;;4994146;28;20460;-71
2021/01/21 01:23:22;;;;;;;20.40;1.92;;;18.20;27.50;;;;;;4993066;28;20415;-71
2021/01/21 01:25:49;;;;;;;12.73;2.47;;;18.10;27.20;;;;;;4989902;28;20030;-72
2021/01/21 01:28:15;;;;;;;11.77;2.78;;;18.00;27.60;;;;;;4988085;28;20027;-71
2021/01/21 01:30:41;;;;;;;26.05;3.65;;;17.90;27.50;;;;;;4994415;28;20492;-71
2021/01/21 01:33:08;;;;;;;13.40;2.22;;;17.80;27.70;;;;;;4993850;28;20345;-71
2021/01/21 01:35:34;;;;;;;23.50;2.42;;;17.60;27.70;;;;;;4994186;28;20026;-71
2021/01/21 01:38:01;;;;;;;16.70;2.22;;;17.30;27.50;;;;;;4995896;28;20022;-72
2021/01/21 01:40:27;;;;;;;23.10;4.15;;;17.10;28.40;;;;;;5003497;28;20026;-73
2021/01/21 01:42:53;;;;;;;13.98;2.22;;;17.00;28.10;;;;;;4989350;28;20465;-72
2021/01/21 01:45:20;;;;;;;19.80;3.05;;;17.00;28.20;;;;;;5002450;28;20032;-72
2021/01/21 01:47:47;;;;;;;19.25;2.50;;;16.90;28.30;;;;;;4988795;28;20065;-72
2021/01/21 01:50:15;;;;;;;15.18;3.08;;;16.80;28.20;;;;;;4987430;28;20100;-72
2021/01/21 01:52:43;;;;;;;10.30;1.95;;;16.50;28.40;;;;;;4989081;28;20575;-71
2021/01/21 01:55:14;;;;;;;17.38;2.17;;;16.50;28.50;;;;;;4993252;28;20027;-72
2021/01/21 01:57:41;;;;;;;19.02;2.67;;;16.40;28.30;;;;;;4992589;28;20034;-71
2021/01/21 02:00:09;;;;;;;33.75;3.95;;;16.30;28.50;;;;;;4987494;28;20101;-72
2021/01/21 02:02:35;;;;;;;30.73;2.67;;;16.10;28.30;;;;;;4988438;28;20064;-73
2021/01/21 02:05:03;;;;;;;23.75;3.63;;;16.20;28.80;;;;;;4992011;28;20499;-72
2021/01/21 02:07:29;;;;;;;16.20;3.30;;;16.00;28.60;;;;;;4985282;28;20053;-72
2021/01/21 02:09:59;;;;;;;23.83;3.20;;;15.90;29.00;;;;;;4991378;28;20361;-72
2021/01/21 02:12:40;;;;;;;26.52;3.25;;;15.90;28.90;;;;;;4984390;28;21318;-72
2021/01/21 02:15:28;;;;;;;13.63;2.28;;;15.90;28.70;;;;;;4989255;28;20751;-71
2021/01/21 02:17:57;;;;;;;19.38;3.63;;;15.90;28.60;;;;;;4987425;28;20129;-72
2021/01/21 02:21:01;;;;;;;21.92;3.55;;;15.80;28.90;;;;;;4986381;28;20088;-72
2021/01/21 02:24:05;;;;;;;25.48;3.25;;;15.80;29.30;;;;;;4990890;28;20027;-71
2021/01/21 02:27:02;;;;;;;11.23;3.58;;;15.80;28.80;;;;;;4981784;28;20034;-71
2021/01/21 02:29:35;;;;;;;24.13;3.00;;;15.70;29.00;;;;;;4999293;28;20062;-71
2021/01/21 02:32:08;;;;;;;26.85;4.03;;;15.60;29.30;;;;;;4985686;28;20049;-71
2021/01/21 02:34:53;;;;;;;22.45;3.50;;;15.50;28.90;;;;;;4985498;28;20305;-71
2021/01/21 02:37:25;;;;;;;15.88;3.10;;;15.50;29.10;;;;;;4989565;28;20061;-71
2021/01/21 02:39:54;;;;;;;36.50;8.23;;;15.40;29.30;;;;;;4990825;28;20046;-71
2021/01/21 02:42:21;;;;;;;48.40;7.15;;;15.20;29.60;;;;;;4994642;28;20073;-71
2021/01/21 02:44:47;;;;;;;25.05;6.43;;;15.20;29.40;;;;;;4988833;28;20034;-71
2021/01/21 02:47:16;;;;;;;28.38;4.07;;;15.10;30.00;;;;;;4989600;28;20058;-72
2021/01/21 02:49:43;;;;;;;29.58;3.05;;;15.10;29.10;;;;;;4988012;28;20030;-72
2021/01/21 02:52:32;;;;;;;23.38;3.88;;;15.10;29.30;;;;;;4991511;28;20027;-71
2021/01/21 02:55:45;;;;;;;54.35;15.00;;;15.10;29.00;;;;;;4984240;28;20019;-71
2021/01/21 02:58:42;;;;;;;21.52;7.88;;;15.20;28.70;;;;;;4988318;28;20038;-71
2021/01/21 03:01:09;;;;;;;24.90;3.85;;;15.20;28.50;;;;;;4992090;28;20030;-71
2021/01/21 03:03:38;;;;;;;27.27;4.93;;;15.30;28.40;;;;;;4994948;28;20030;-71
2021/01/21 03:06:06;;;;;;;28.67;4.38;;;15.30;28.30;;;;;;4995082;28;20464;-72
2021/01/21 03:08:33;;;;;;;23.42;3.65;;;15.30;28.40;;;;;;4987544;28;20038;-71
2021/01/21 03:11:15;;;;;;;26.00;5.53;;;15.30;28.50;;;;;;4992319;28;20452;-72
2021/01/21 03:13:43;;;;;;;23.17;3.60;;;15.30;28.50;;;;;;4992181;28;20030;-71
2021/01/21 03:16:09;;;;;;;38.30;4.80;;;15.30;28.60;;;;;;4992215;28;20026;-71
2021/01/21 03:18:36;;;;;;;36.20;4.45;;;15.30;28.50;;;;;;4995664;28;20026;-72
2021/01/21 03:21:03;;;;;;;23.10;3.45;;;15.30;28.50;;;;;;4993956;28;20026;-71
2021/01/21 03:23:29;;;;;;;41.92;4.20;;;15.30;28.40;;;;;;4993593;28;20034;-72
2021/01/21 03:25:56;;;;;;;24.88;3.72;;;15.40;28.50;;;;;;4994695;28;20104;-72
2021/01/21 03:28:22;;;;;;;19.58;4.18;;;15.30;28.40;;;;;;4995212;28;20034;-72
2021/01/21 03:30:48;;;;;;;34.60;4.82;;;15.30;28.60;;;;;;4993648;28;20042;-72
2021/01/21 03:33:15;;;;;;;24.05;3.17;;;15.30;28.40;;;;;;4994402;28;20026;-72
2021/01/21 03:35:41;;;;;;;27.40;3.75;;;15.30;28.40;;;;;;4996878;28;20441;-71
2021/01/21 03:38:07;;;;;;;18.25;3.30;;;15.40;28.40;;;;;;4992836;28;20034;-73
2021/01/21 03:40:34;;;;;;;26.33;4.65;;;15.30;28.30;;;;;;4997421;28;20090;-72
2021/01/21 03:43:00;;;;;;;26.10;4.65;;;15.30;28.30;;;;;;4993893;28;20022;-71
2021/01/21 03:45:27;;;;;;;23.10;3.53;;;15.30;28.30;;;;;;4988319;28;20476;-72
2021/01/21 03:47:55;;;;;;;27.35;3.33;;;15.30;28.30;;;;;;4987250;28;20464;-72
2021/01/21 03:50:22;;;;;;;34.95;3.53;;;15.30;28.40;;;;;;4991181;28;20034;-74
2021/01/21 03:52:48;;;;;;;29.23;6.03;;;15.30;28.30;;;;;;4991852;28;20482;-76
2021/01/21 03:55:14;;;;;;;16.55;3.33;;;15.30;28.30;;;;;;4994171;28;20026;-77
2021/01/21 03:57:41;;;;;;;23.27;4.18;;;15.30;28.40;;;;;;4991746;28;20022;-73
2021/01/21 04:00:08;;;;;;;30.48;4.63;;;15.20;28.40;;;;;;4996062;28;20464;-74
2021/01/21 04:02:34;;;;;;;29.13;4.15;;;15.20;28.40;;;;;;4994129;28;20531;-76
2021/01/21 04:05:01;;;;;;;18.73;2.65;;;15.20;28.50;;;;;;4999427;28;20058;-75
2021/01/21 04:07:27;;;;;;;25.63;3.20;;;15.20;28.60;;;;;;4994362;28;20109;-76
2021/01/21 04:09:53;;;;;;;23.85;2.97;;;15.10;28.60;;;;;;4993302;28;20030;-72
2021/01/21 04:12:20;;;;;;;23.35;2.65;;;15.10;28.60;;;;;;4985998;28;20022;-75
2021/01/21 04:14:46;;;;;;;25.05;3.08;;;15.10;28.50;;;;;;4982624;28;20019;-75
2021/01/21 04:17:13;;;;;;;29.10;4.32;;;15.00;28.60;;;;;;4992325;28;20346;-73
2021/01/21 04:19:39;;;;;;;22.27;3.05;;;15.00;28.70;;;;;;4991011;28;20023;-75
2021/01/21 04:22:05;;;;;;;18.92;2.63;;;14.90;28.70;;;;;;4990988;28;20050;-72
2021/01/21 04:24:32;;;;;;;34.53;3.70;;;15.00;28.90;;;;;;4990527;28;20125;-71
2021/01/21 04:26:58;;;;;;;24.42;3.85;;;14.90;28.70;;;;;;4994937;28;20034;-71
2021/01/21 04:29:25;;;;;;;38.08;5.38;;;14.80;28.80;;;;;;4997267;28;20054;-71
2021/01/21 04:31:51;;;;;;;18.30;3.25;;;14.70;29.00;;;;;;4988649;28;20026;-70
2021/01/21 04:34:17;;;;;;;17.50;3.35;;;14.60;29.00;;;;;;4986475;28;20022;-71
2021/01/21 04:36:44;;;;;;;38.65;7.00;;;14.60;29.10;;;;;;4991172;28;20042;-71
2021/01/21 04:39:10;;;;;;;21.38;3.47;;;14.60;29.40;;;;;;4994508;28;20037;-71
2021/01/21 04:41:37;;;;;;;24.52;2.83;;;14.50;29.40;;;;;;4989741;28;20018;-71
2021/01/21 04:44:03;;;;;;;20.83;2.25;;;14.40;29.40;;;;;;4991643;28;20050;-71
2021/01/21 04:46:30;;;;;;;27.55;3.38;;;14.30;29.30;;;;;;4998943;28;20034;-71
2021/01/21 04:48:57;;;;;;;28.25;4.30;;;14.30;29.50;;;;;;4998775;28;20080;-71
2021/01/21 04:51:24;;;;;;;16.75;3.33;;;14.30;29.60;;;;;;4990788;28;20085;-71
2021/01/21 04:53:57;;;;;;;17.65;2.83;;;14.20;29.20;;;;;;4989165;28;20023;-71
2021/01/21 04:56:29;;;;;;;25.23;2.88;;;14.10;29.50;;;;;;4987825;28;20096;-71
2021/01/21 04:59:01;;;;;;;36.35;3.58;;;14.00;29.60;;;;;;4988917;28;20110;-72
2021/01/21 05:01:30;;;;;;;28.13;4.90;;;13.80;29.70;;;;;;4993782;28;20027;-72
2021/01/21 05:03:57;;;;;;;18.70;3.88;;;13.90;29.60;;;;;;4993831;28;20085;-73
2021/01/21 05:06:24;;;;;;;17.08;2.75;;;13.80;29.70;;;;;;4994543;28;20072;-74
2021/01/21 05:08:51;;;;;;;21.63;3.35;;;13.70;29.80;;;;;;4996824;28;20045;-72
2021/01/21 05:11:18;;;;;;;22.20;2.90;;;13.70;29.90;;;;;;4995295;28;20031;-73
2021/01/21 05:13:44;;;;;;;20.48;2.97;;;13.60;29.90;;;;;;4987176;28;20097;-70
2021/01/21 05:16:11;;;;;;;24.13;2.95;;;13.60;30.10;;;;;;4993393;28;20030;-75
2021/01/21 05:18:38;;;;;;;27.65;3.53;;;13.50;30.10;;;;;;4995728;28;20023;-72
2021/01/21 05:21:06;;;;;;;29.70;2.85;;;13.40;30.70;;;;;;4995260;28;20054;-70
2021/01/21 05:23:33;;;;;;;17.25;3.80;;;13.30;30.00;;;;;;4993689;28;20037;-74
2021/01/21 05:26:00;;;;;;;16.33;2.80;;;13.30;30.20;;;;;;4993097;28;20101;-71
2021/01/21 05:28:27;;;;;;;21.83;4.18;;;13.20;30.40;;;;;;4993001;28;20022;-72
2021/01/21 05:30:58;;;;;;;17.77;3.28;;;13.10;30.40;;;;;;4995132;28;20324;-72
2021/01/21 05:33:24;;;;;;;21.27;3.75;;;13.10;30.20;;;;;;4986566;28;20428;-70
2021/01/21 05:35:54;;;;;;;17.65;3.25;;;13.00;30.20;;;;;;4989149;28;20026;-70
2021/01/21 05:38:21;;;;;;;16.52;3.42;;;12.90;30.20;;;;;;4993115;28;20436;-70
2021/01/21 05:40:48;;;;;;;18.40;3.47;;;12.90;30.40;;;;;;4994058;28;20033;-73
2021/01/21 05:43:15;;;;;;;23.65;3.17;;;13.00;30.10;;;;;;4986803;28;20046;-72
2021/01/21 05:45:47;;;;;;;36.40;5.75;;;13.10;30.40;;;;;;4983633;28;20424;-72
2021/01/21 05:48:14;;;;;;;28.55;5.20;;;13.00;30.40;;;;;;4987066;28;20034;-72
2021/01/21 05:50:40;;;;;;;18.25;3.78;;;13.00;30.20;;;;;;4987896;28;20038;-72
2021/01/21 05:53:11;;;;;;;28.08;3.55;;;13.10;30.20;;;;;;4983829;28;20705;-72
2021/01/21 05:55:38;;;;;;;14.25;2.83;;;13.00;30.20;;;;;;4987734;28;20034;-72
2021/01/21 05:58:06;;;;;;;17.70;2.78;;;12.90;30.20;;;;;;4992765;28;20334;-72
2021/01/21 06:00:33;;;;;;;13.38;2.92;;;12.80;30.30;;;;;;5000980;28;20476;-72
2021/01/21 06:03:04;;;;;;;17.67;2.97;;;12.90;30.40;;;;;;4985673;28;20034;-71
2021/01/21 06:05:32;;;;;;;15.80;3.17;;;12.80;30.40;;;;;;4989140;28;20019;-71
2021/01/21 06:08:02;;;;;;;10.70;3.00;;;12.90;30.70;;;;;;4988311;28;20085;-73
2021/01/21 06:10:29;;;;;;;25.58;4.30;;;12.90;30.40;;;;;;4991222;28;20504;-72
2021/01/21 06:12:55;;;;;;;19.02;3.33;;;12.80;30.20;;;;;;4988284;28;20026;-71
2021/01/21 06:15:21;;;;;;;17.42;3.53;;;12.70;30.50;;;;;;4991575;28;20026;-71
2021/01/21 06:17:49;;;;;;;14.30;2.53;;;12.80;30.80;;;;;;4994389;28;20045;-72
2021/01/21 06:20:17;;;;;;;25.20;5.30;;;12.80;30.70;;;;;;4988449;28;20022;-73
2021/01/21 06:22:48;;;;;;;15.55;2.30;;;12.80;31.00;;;;;;4992196;28;20096;-72
2021/01/21 06:25:21;;;;;;;17.92;3.00;;;12.80;30.90;;;;;;4993015;28;20353;-72
2021/01/21 06:27:47;;;;;;;14.98;3.08;;;12.70;31.10;;;;;;4999424;28;20030;-71
2021/01/21 06:30:21;;;;;;;18.40;2.65;;;12.60;31.10;;;;;;4987376;28;20038;-72
2021/01/21 06:32:57;;;;;;;19.23;3.67;;;12.50;31.40;;;;;;4993508;28;20116;-72
2021/01/21 06:35:30;;;;;;;11.77;2.38;;;12.50;31.50;;;;;;4993427;28;20057;-72
2021/01/21 06:38:02;;;;;;;14.43;2.92;;;12.40;31.60;;;;;;4986728;28;20034;-72
2021/01/21 06:40:30;;;;;;;15.73;3.85;;;12.20;31.90;;;;;;4990896;28;20026;-71
2021/01/21 06:43:03;;;;;;;21.85;3.42;;;12.10;31.90;;;;;;4995108;28;20121;-72
2021/01/21 06:45:31;;;;;;;12.93;3.53;;;12.10;32.20;;;;;;4992833;28;20023;-73
2021/01/21 06:47:59;;;;;;;18.75;2.67;;;12.10;32.90;;;;;;4990745;28;20453;-74
2021/01/21 06:50:32;;;;;;;14.80;4.07;;;12.20;32.50;;;;;;4999027;28;20042;-72
2021/01/21 06:53:05;;;;;;;24.75;3.13;;;12.10;31.90;;;;;;4981861;28;20037;-74
2021/01/21 06:55:35;;;;;;;13.90;3.22;;;12.10;32.20;;;;;;4997350;28;20065;-72
2021/01/21 06:58:03;;;;;;;10.18;2.42;;;12.10;31.90;;;;;;4979247;28;20148;-73
2021/01/21 07:00:35;;;;;;;21.83;3.17;;;12.00;31.90;;;;;;4995814;28;20022;-72
2021/01/21 07:03:02;;;;;;;15.70;3.22;;;12.00;32.10;;;;;;4996744;28;20037;-72
2021/01/21 07:05:29;;;;;;;12.65;3.03;;;12.10;32.20;;;;;;4993531;28;20022;-71
2021/01/21 07:08:02;;;;;;;29.67;3.90;;;12.10;32.30;;;;;;4989062;28;20039;-73
2021/01/21 07:10:37;;;;;;;24.92;4.05;;;12.10;32.40;;;;;;4984991;28;20047;-72
2021/01/21 07:13:12;;;;;;;15.00;2.60;;;12.10;32.80;;;;;;4993142;28;20030;-71
2021/01/21 07:15:48;;;;;;;18.55;2.28;;;12.10;32.90;;;;;;4992129;28;20445;-72
2021/01/21 07:18:22;;;;;;;16.05;3.53;;;12.00;33.10;;;;;;4994737;28;20038;-73
2021/01/21 07:21:02;;;;;;;21.60;2.70;;;11.90;33.00;;;;;;4996610;28;20360;-72
2021/01/21 07:23:43;;;;;;;19.77;3.20;;;11.90;32.80;;;;;;4989686;28;20018;-73
2021/01/21 07:26:29;;;;;;;19.50;4.05;;;11.80;33.30;;;;;;4995520;28;20038;-72
2021/01/21 07:29:03;;;;;;;24.90;2.97;;;11.60;33.10;;;;;;4988413;28;20547;-72
2021/01/21 07:31:49;;;;;;;12.65;2.58;;;11.60;33.20;;;;;;4990732;28;20114;-72
2021/01/21 07:34:47;;;;;;;13.90;2.30;;;11.40;33.50;;;;;;4992635;28;20162;-72
2021/01/21 07:37:41;;;;;;;15.00;3.50;;;11.30;33.40;;;;;;4993450;28;20042;-73
2021/01/21 07:40:12;;;;;;;20.40;3.03;;;11.20;33.10;;;;;;4994829;28;20038;-72
2021/01/21 07:42:38;;;;;;;16.20;3.17;;;11.10;33.50;;;;;;4994896;28;20031;-73
2021/01/21 07:45:24;;;;;;;8.50;3.15;;;11.10;33.30;;;;;;4990904;28;20337;-72
2021/01/21 07:47:55;;;;;;;22.90;3.47;;;11.10;33.30;;;;;;4994225;28;20041;-72
2021/01/21 07:50:22;;;;;;;15.43;2.33;;;11.10;33.40;;;;;;4995261;28;20030;-72
2021/01/21 07:52:53;;;;;;;16.88;2.70;;;11.10;33.20;;;;;;4992419;28;20447;-72
2021/01/21 07:55:39;;;;;;;12.45;2.75;;;11.20;33.70;;;;;;4987350;28;20033;-72
2021/01/21 07:58:14;;;;;;;14.73;3.85;;;11.20;33.60;;;;;;4988499;28;20056;-72
2021/01/21 08:00:41;;;;;;;10.57;2.95;;;11.10;33.20;;;;;;4987189;28;20097;-72
2021/01/21 08:03:08;;;;;;;12.95;2.90;;;11.20;34.00;;;;;;4995788;28;20018;-72
2021/01/21 08:05:35;;;;;;;14.05;3.15;;;11.20;33.70;;;;;;4986270;28;20035;-72
2021/01/21 08:08:03;;;;;;;12.50;2.72;;;11.20;34.20;;;;;;4995023;28;20056;-72
2021/01/21 08:10:34;;;;;;;11.52;3.75;;;11.30;34.20;;;;;;4996683;28;20026;-73
2021/01/21 08:13:03;;;;;;;18.67;4.32;;;11.30;33.90;;;;;;4994733;28;20490;-72
2021/01/21 08:15:31;;;;;;;12.30;2.47;;;11.30;34.00;;;;;;4993523;28;20050;-73
2021/01/21 08:17:58;;;;;;;15.50;2.88;;;11.30;34.00;;;;;;4992108;28;20052;-73
2021/01/21 08:20:29;;;;;;;21.25;2.38;;;11.30;34.10;;;;;;4985703;28;20018;-73
2021/01/21 08:23:04;;;;;;;9.68;2.80;;;11.30;34.20;;;;;;4991057;28;20027;-74
2021/01/21 08:25:42;;;;;;;18.83;3.63;;;11.20;34.70;;;;;;4994885;28;20476;-72
2021/01/21 08:28:09;;;;;;;22.75;2.90;;;11.00;34.30;;;;;;4995577;28;20101;-72
2021/01/21 08:30:36;;;;;;;17.33;2.88;;;10.90;34.60;;;;;;4993846;28;20126;-72
2021/01/21 08:33:12;;;;;;;17.02;3.00;;;10.80;35.40;;;;;;4992186;28;20460;-73
2021/01/21 08:36:04;;;;;;;21.88;2.85;;;10.90;35.10;;;;;;4991166;28;20042;-72
2021/01/21 08:38:38;;;;;;;22.23;3.47;;;10.80;35.00;;;;;;4975924;28;20058;-72
2021/01/21 08:41:05;;;;;;;29.80;4.43;;;10.70;35.00;;;;;;4990991;28;20030;-72
2021/01/21 08:43:32;;;;;;;15.18;2.67;;;10.50;35.00;;;;;;4985801;28;20038;-73
2021/01/21 08:45:58;;;;;;;21.92;2.60;;;10.40;35.10;;;;;;4989242;28;20393;-73
2021/01/21 08:48:34;;;;;;;13.40;2.65;;;10.50;35.30;;;;;;4995491;28;20471;-72
2021/01/21 08:51:01;;;;;;;15.82;2.88;;;10.60;35.20;;;;;;4993419;28;20062;-72
2021/01/21 08:53:30;;;;;;;11.27;2.47;;;10.70;35.00;;;;;;4995004;28;20038;-73
2021/01/21 08:55:57;;;;;;;16.48;2.92;;;10.50;34.90;;;;;;4991278;28;20037;-72
2021/01/21 08:58:30;;;;;;;11.23;3.28;;;10.50;35.70;;;;;;4995463;28;20030;-72
2021/01/21 09:01:11;;;;;;;19.15;3.60;;;10.50;35.60;;;;;;4990842;28;20034;-72
2021/01/21 09:03:50;;;;;;;14.52;3.63;;;10.50;35.80;;;;;;4993102;28;20361;-72
2021/01/21 09:06:21;;;;;;;13.95;2.40;;;10.60;35.90;;;;;;4994633;28;20054;-72
2021/01/21 09:08:58;;;;;;;12.32;2.55;;;10.50;35.60;;;;;;4993114;28;20406;-72
2021/01/21 09:11:37;;;;;;;20.48;5.20;;;10.50;36.00;;;;;;4991977;28;20030;-71
2021/01/21 09:14:13;;;;;;;24.85;2.83;;;10.40;36.20;;;;;;4980290;28;20474;-73
2021/01/21 09:16:43;;;;;;;16.73;2.50;;;10.50;36.70;;;;;;4993447;28;20034;-73
2021/01/21 09:19:15;;;;;;;15.40;3.10;;;10.50;36.30;;;;;;4991331;28;20113;-73
2021/01/21 09:22:01;;;;;;;19.50;3.35;;;10.40;36.60;;;;;;4994843;28;20030;-74
2021/01/21 09:24:28;;;;;;;14.82;2.53;;;10.30;37.10;;;;;;4992454;28;20049;-72
2021/01/21 09:27:17;;;;;;;16.70;2.53;;;10.20;37.10;;;;;;4995254;28;20367;-73
2021/01/21 09:29:46;;;;;;;6.93;2.45;;;10.20;37.40;;;;;;4994493;28;20026;-72
2021/01/21 09:32:13;;;;;;;19.20;3.15;;;10.20;37.80;;;;;;4993958;28;20388;-73
2021/01/21 09:34:51;;;;;;;12.45;2.55;;;10.20;37.50;;;;;;4994400;28;20046;-72
2021/01/21 09:37:18;;;;;;;13.13;3.30;;;10.10;37.50;;;;;;4989633;28;20469;-72
2021/01/21 09:39:44;;;;;;;12.52;4.05;;;10.10;37.60;;;;;;4992195;28;20041;-73
2021/01/21 09:42:10;;;;;;;14.30;2.55;;;10.10;37.60;;;;;;4994122;28;20018;-73
2021/01/21 09:44:37;;;;;;;15.60;3.75;;;10.00;37.60;;;;;;4993634;28;20448;-73
2021/01/21 09:47:04;;;;;;;9.70;3.65;;;10.00;37.90;;;;;;4983845;28;20057;-72
2021/01/21 09:49:30;;;;;;;15.63;2.80;;;9.90;37.40;;;;;;4990240;28;20369;-73
2021/01/21 09:51:56;;;;;;;17.63;2.45;;;9.90;37.50;;;;;;4993548;28;20027;-72
2021/01/21 09:54:23;;;;;;;14.38;2.63;;;9.80;38.00;;;;;;4993366;28;20057;-72
2021/01/21 09:56:52;;;;;;;22.25;3.10;;;9.80;38.10;;;;;;4993054;28;20348;-72
2021/01/21 09:59:19;;;;;;;9.80;2.80;;;9.80;38.40;;;;;;4992200;28;20433;-72
2021/01/21 10:01:47;;;;;;;22.63;3.10;;;9.80;38.00;;;;;;4990459;28;20022;-72
2021/01/21 10:04:14;;;;;;;21.35;3.63;;;9.80;38.00;;;;;;4999210;28;20463;-73
2021/01/21 10:06:41;;;;;;;14.38;4.03;;;9.80;38.20;;;;;;4999458;28;20403;-73
2021/01/21 10:09:08;;;;;;;13.02;3.05;;;9.80;38.30;;;;;;4999687;28;20026;-73
2021/01/21 10:11:34;;;;;;;15.45;2.45;;;9.60;38.10;;;;;;5000895;28;20033;-72
2021/01/21 10:14:02;;;;;;;9.95;2.65;;;9.50;38.10;;;;;;5000458;28;20034;-73
2021/01/21 10:16:29;;;;;;;14.48;3.15;;;9.50;38.50;;;;;;4998762;28;20026;-73
2021/01/21 10:18:59;;;;;;;8.82;2.65;;;9.50;39.00;;;;;;4997195;28;20045;-72
2021/01/21 10:21:25;;;;;;;12.48;2.30;;;9.50;38.50;;;;;;4999471;28;20023;-73
2021/01/21 10:23:52;;;;;;;22.10;2.72;;;9.60;38.80;;;;;;5000177;28;20455;-72
2021/01/21 10:26:19;;;;;;;17.15;3.78;;;9.60;38.70;;;;;;4998253;28;20029;-72
2021/01/21 10:28:45;;;;;;;16.42;3.55;;;9.40;38.50;;;;;;4999639;28;20117;-73
2021/01/21 10:31:12;;;;;;;14.95;3.00;;;9.40;38.70;;;;;;5002905;28;20022;-73
2021/01/21 10:33:41;;;;;;;10.45;2.95;;;9.40;39.00;;;;;;5000606;28;20033;-73
2021/01/21 10:36:08;;;;;;;17.52;3.38;;;9.20;38.60;;;;;;4998594;28;20105;-73
2021/01/21 10:38:35;;;;;;;10.15;2.80;;;9.10;38.20;;;;;;4999114;28;20041;-72
2021/01/21 10:41:04;;;;;;;16.05;3.40;;;9.00;38.60;;;;;;5000327;28;20014;-72
2021/01/21 10:43:31;;;;;;;17.33;3.03;;;9.10;39.30;;;;;;4997810;28;20475;-72
2021/01/21 10:45:57;;;;;;;8.93;2.45;;;9.10;39.50;;;;;;5000686;28;20030;-73
2021/01/21 10:48:24;;;;;;;13.68;3.20;;;9.30;39.30;;;;;;4999732;28;20096;-72
2021/01/21 10:50:51;;;;;;;17.90;3.00;;;9.20;38.90;;;;;;4999286;28;20030;-72
2021/01/21 10:53:17;;;;;;;14.02;2.65;;;9.20;39.90;;;;;;5000597;28;20030;-72
2021/01/21 10:55:44;;;;;;;16.25;3.00;;;9.30;39.40;;;;;;5000162;28;20046;-72
2021/01/21 10:58:10;;;;;;;22.42;2.65;;;9.10;40.00;;;;;;4999249;28;20122;-72
2021/01/21 11:00:37;;;;;;;14.98;3.35;;;9.20;39.80;;;;;;4998255;28;20027;-72
2021/01/21 11:03:04;;;;;;;19.27;3.65;;;9.00;40.10;;;;;;5000322;28;20019;-72
2021/01/21 11:05:30;;;;;;;9.35;2.67;;;9.10;40.90;;;;;;4999996;28;20085;-72
2021/01/21 11:07:57;;;;;;;26.15;3.53;;;9.10;41.00;;;;;;4999747;28;20415;-73
2021/01/21 11:10:23;;;;;;;25.13;3.15;;;9.10;40.50;;;;;;4996058;28;20058;-72
2021/01/21 11:12:50;;;;;;;16.83;3.75;;;9.00;40.30;;;;;;4996916;28;20121;-72
2021/01/21 11:15:17;;;;;;;14.07;2.53;;;9.00;40.40;;;;;;4995992;28;20396;-72
2021/01/21 11:17:45;;;;;;;14.82;2.85;;;9.00;40.80;;;;;;4996262;28;20058;-73
2021/01/21 11:20:13;;;;;;;16.05;3.55;;;8.90;39.90;;;;;;4994781;28;20466;-72
2021/01/21 11:22:40;;;;;;;21.30;5.80;;;8.90;40.30;;;;;;4996926;28;20061;-73
2021/01/21 11:25:08;;;;;;;19.33;3.22;;;9.00;40.80;;;;;;4996546;28;20022;-72
2021/01/21 11:27:38;;;;;;;20.95;4.00;;;9.00;40.70;;;;;;4994574;28;20381;-72
2021/01/21 11:30:10;;;;;;;20.25;4.07;;;8.90;40.90;;;;;;4995590;28;20045;-72
2021/01/21 11:32:36;;;;;;;17.58;2.92;;;8.90;40.80;;;;;;4995663;28;20121;-72
2021/01/21 11:35:04;;;;;;;20.02;2.85;;;8.80;40.20;;;;;;4997847;28;20061;-72
2021/01/21 11:37:30;;;;;;;18.73;3.17;;;8.70;39.80;;;;;;4997798;28;20117;-73
2021/01/21 11:39:57;;;;;;;10.70;2.75;;;8.70;40.20;;;;;;4996745;28;20069;-73
2021/01/21 11:42:23;;;;;;;16.10;2.90;;;8.70;41.10;;;;;;4996661;28;20341;-73
2021/01/21 11:44:50;;;;;;;21.15;3.55;;;8.90;41.20;;;;;;4996185;28;20155;-73
2021/01/21 11:47:17;;;;;;;14.30;2.72;;;8.80;40.40;;;;;;4991396;28;20026;-73
2021/01/21 11:49:44;;;;;;;5.90;2.20;;;8.60;40.70;;;;;;4994082;28;20338;-73
2021/01/21 11:52:11;;;;;;;13.60;2.80;;;8.50;40.40;;;;;;4990261;28;20453;-73
2021/01/21 11:54:37;;;;;;;15.18;2.75;;;8.40;40.10;;;;;;4996611;28;20105;-73
2021/01/21 11:57:04;;;;;;;15.32;2.80;;;8.30;40.60;;;;;;4993699;28;20030;-73
2021/01/21 11:59:30;;;;;;;16.42;4.10;;;8.40;41.20;;;;;;4989836;28;20460;-73
2021/01/21 12:01:57;;;;;;;24.50;5.28;;;8.40;40.80;;;;;;4994501;28;20022;-73
2021/01/21 12:04:23;;;;;;;16.40;3.08;;;8.50;41.80;;;;;;4996085;28;20411;-72
2021/01/21 12:06:50;;;;;;;22.65;2.97;;;8.70;42.20;;;;;;4994207;28;20018;-72
2021/01/21 12:09:17;;;;;;;6.82;2.97;;;8.70;41.50;;;;;;4996483;28;20085;-72
2021/01/21 12:11:43;;;;;;;18.02;2.90;;;8.70;41.30;;;;;;4994059;28;20030;-72
2021/01/21 12:14:09;;;;;;;13.88;3.45;;;8.70;41.50;;;;;;4995632;28;20022;-71
2021/01/21 12:16:36;;;;;;;16.63;3.00;;;8.60;41.10;;;;;;4991733;28;20061;-72
2021/01/21 12:19:02;;;;;;;13.35;2.45;;;8.40;40.40;;;;;;4995531;28;20097;-72
2021/01/21 12:21:33;;;;;;;20.23;3.83;;;8.30;41.70;;;;;;4995051;28;20041;-72
2021/01/21 12:24:01;;;;;;;10.77;3.08;;;8.20;41.70;;;;;;4994680;28;20018;-72
2021/01/21 12:26:29;;;;;;;5.57;2.38;;;8.10;41.70;;;;;;4993938;28;20027;-72
2021/01/21 12:28:55;;;;;;;9.07;2.88;;;8.10;40.70;;;;;;4995703;28;20030;-72
2021/01/21 12:31:22;;;;;;;17.17;2.80;;;8.20;41.80;;;;;;4993946;28;20026;-72
2021/01/21 12:33:48;;;;;;;13.60;2.65;;;8.10;40.70;;;;;;4996559;28;20414;-72
2021/01/21 12:36:15;;;;;;;12.43;2.63;;;8.10;40.40;;;;;;4994458;28;20030;-72
2021/01/21 12:38:42;;;;;;;13.95;3.58;;;8.00;40.80;;;;;;4995985;28;20061;-72
2021/01/21 12:41:08;;;;;;;10.48;3.35;;;8.00;41.40;;;;;;4997746;28;20033;-71
2021/01/21 12:43:35;;;;;;;12.63;3.08;;;8.00;41.80;;;;;;4993985;28;20022;-72
2021/01/21 12:46:01;;;;;;;24.83;3.42;;;8.10;42.10;;;;;;4994911;28;20022;-72
2021/01/21 12:48:27;;;;;;;12.20;2.75;;;8.10;42.40;;;;;;4996101;28;20467;-72
2021/01/21 12:50:55;;;;;;;14.60;3.33;;;8.10;41.80;;;;;;4995540;28;20080;-72
2021/01/21 12:53:21;;;;;;;10.27;3.40;;;8.20;42.90;;;;;;4995744;28;20037;-72